Time;durP1;ratioP1;P1;durP2;ratioP2;P2;SDS_P1;SDS_P2;PMS_P1;PMS_P2;Temp;Humidity;BMP_temperature;BMP_pressure;BME280_temperature;BME280_humidity;BME280_pressure;Samples;Min_cycle;Max_cycle;Signal;HPM_P1;HPM_P2
2023/02/21 02:15:58;;;;;;;3.40;1.80;;;8.90;99.90;8.80;100295.00;;;;4911586;28;88151;-69
2023/02/21 02:18:36;;;;;;;2.03;1.77;;;8.90;99.90;8.80;100288.00;;;;4909903;28;89907;-68
2023/02/21 02:22:13;;;;;;;4.03;2.50;;;8.90;99.90;8.80;100296.00;;;;4908706;28;101397;-68
2023/02/21 02:25:08;;;;;;;3.13;2.03;;;8.90;99.90;8.80;100300.00;;;;4876361;28;88004;-67
2023/02/21 02:27:54;;;;;;;2.60;2.23;;;8.90;99.90;8.80;100304.00;;;;4915364;28;87908;-69
2023/02/21 02:30:49;;;;;;;5.63;2.57;;;9.00;99.90;8.90;100283.00;;;;4893203;28;104654;-69
2023/02/21 02:33:36;;;;;;;2.20;1.97;;;8.90;99.90;8.90;100275.00;;;;4909588;28;88048;-69
2023/02/21 02:36:07;;;;;;;4.53;2.30;;;9.00;99.90;9.00;100280.00;;;;4910035;28;97413;-68
2023/02/21 02:38:58;;;;;;;4.10;2.07;;;9.10;99.90;9.00;100270.00;;;;4878445;28;99549;-70
2023/02/21 02:42:31;;;;;;;2.67;1.90;;;9.10;99.90;9.00;100296.00;;;;4892673;28;96407;-68
2023/02/21 02:45:04;;;;;;;6.87;2.30;;;9.10;99.90;9.00;100292.00;;;;4889573;28;104242;-68
2023/02/21 02:47:35;;;;;;;3.17;2.00;;;9.20;99.90;9.10;100290.00;;;;4895581;28;101395;-68
2023/02/21 02:50:05;;;;;;;3.33;2.07;;;9.20;99.90;9.10;100283.00;;;;4889567;28;102379;-68
2023/02/21 02:52:30;;;;;;;3.90;2.40;;;9.20;99.90;9.20;100276.00;;;;4888159;28;90973;-68
2023/02/21 02:55:02;;;;;;;2.47;1.87;;;9.30;99.90;9.20;100281.00;;;;4910357;28;117860;-68
2023/02/21 02:57:40;;;;;;;5.13;2.40;;;9.30;99.90;9.20;100288.00;;;;4904567;28;98119;-69
2023/02/21 03:00:09;;;;;;;3.87;2.37;;;9.30;99.90;9.20;100273.00;;;;4893794;28;88192;-69
2023/02/21 03:03:13;;;;;;;3.37;2.53;;;9.30;99.90;9.30;100271.00;;;;4893795;28;88274;-67
2023/02/21 03:06:06;;;;;;;2.70;2.13;;;9.30;99.90;9.30;100268.00;;;;4910928;28;110671;-68
2023/02/21 03:09:09;;;;;;;5.63;3.13;;;9.40;99.90;9.30;100256.00;;;;4909041;28;87176;-67
2023/02/21 03:11:42;;;;;;;2.67;1.40;;;9.40;99.90;9.40;100252.00;;;;4911076;28;87839;-67
2023/02/21 03:14:15;;;;;;;3.80;2.40;;;9.50;99.90;9.40;100254.00;;;;4903417;28;88955;-66
2023/02/21 03:16:49;;;;;;;5.13;2.40;;;9.50;99.90;9.40;100262.00;;;;4888739;28;88825;-67
2023/02/21 03:19:30;;;;;;;2.90;2.13;;;9.50;99.90;9.50;100261.00;;;;4890780;28;102391;-67
2023/02/21 03:22:01;;;;;;;3.53;2.67;;;9.50;99.90;9.50;100255.00;;;;4889233;28;101021;-67
2023/02/21 03:24:28;;;;;;;3.57;2.07;;;9.60;99.90;9.60;100259.00;;;;4888120;28;105328;-68
2023/02/21 03:27:02;;;;;;;2.87;2.03;;;9.70;99.90;9.60;100261.00;;;;4889001;28;117740;-69
2023/02/21 03:29:28;;;;;;;3.83;2.50;;;9.70;99.90;9.70;100256.00;;;;4905546;28;88248;-68
2023/02/21 03:34:37;;;;;;;2.67;1.50;;;9.70;99.90;9.70;100247.00;;;;4904168;28;87576;-69
2023/02/21 03:37:09;;;;;;;4.20;2.03;;;9.80;99.90;9.70;100241.00;;;;4887383;28;87805;-68
2023/02/21 03:39:35;;;;;;;2.63;1.83;;;9.80;99.90;9.80;100250.00;;;;4905149;28;91710;-68
2023/02/21 03:42:00;;;;;;;1.63;1.43;;;9.80;99.90;9.80;100245.00;;;;4888798;28;108871;-69
2023/02/21 03:44:26;;;;;;;2.17;1.80;;;9.80;99.90;9.80;100246.00;;;;4886972;28;88027;-69
2023/02/21 03:46:52;;;;;;;1.73;1.57;;;9.80;99.90;9.80;100247.00;;;;4890305;28;117816;-69
2023/02/21 03:49:17;;;;;;;4.00;2.20;;;9.90;99.90;9.90;100244.00;;;;4891103;28;110351;-68
2023/02/21 03:51:43;;;;;;;6.60;2.80;;;9.90;99.90;9.90;100239.00;;;;4884024;28;107613;-68
2023/02/21 03:54:08;;;;;;;4.03;1.77;;;9.90;99.90;9.90;100237.00;;;;4891384;28;116983;-67
2023/02/21 03:56:34;;;;;;;2.57;1.90;;;9.90;99.90;9.90;100235.00;;;;4888517;28;116770;-66
2023/02/21 03:59:00;;;;;;;3.63;2.23;;;9.90;99.90;9.90;100220.00;;;;4888199;28;109435;-66
2023/02/21 04:01:25;;;;;;;3.10;2.17;;;10.00;99.90;9.90;100229.00;;;;4890700;28;108536;-66
2023/02/21 04:03:52;;;;;;;1.90;1.57;;;10.00;99.90;10.00;100232.00;;;;4892234;28;116254;-68
2023/02/21 04:06:17;;;;;;;2.63;1.60;;;10.00;99.90;10.00;100228.00;;;;4885721;28;116907;-68
2023/02/21 04:08:43;;;;;;;4.17;1.60;;;10.00;99.90;10.00;100233.00;;;;4889519;28;111300;-68
2023/02/21 04:11:09;;;;;;;3.03;2.13;;;10.10;99.90;10.10;100235.00;;;;4888012;28;106267;-67
2023/02/21 04:13:34;;;;;;;2.90;1.93;;;10.10;99.90;10.10;100231.00;;;;4901797;28;116768;-68
2023/02/21 04:16:00;;;;;;;3.47;1.90;;;10.10;99.90;10.10;100253.00;;;;4908498;28;117203;-68
2023/02/21 04:18:25;;;;;;;4.03;2.27;;;10.10;99.90;10.10;100245.00;;;;4911077;28;110562;-67
2023/02/21 04:20:51;;;;;;;3.80;2.27;;;10.20;99.90;10.10;100227.00;;;;4908352;28;107945;-68
2023/02/21 04:23:19;;;;;;;4.47;2.17;;;10.20;99.90;10.10;100241.00;;;;4911790;28;87383;-67
2023/02/21 04:25:44;;;;;;;3.53;1.73;;;10.20;99.90;10.10;100239.00;;;;4911450;28;89466;-69
2023/02/21 04:28:10;;;;;;;2.93;2.10;;;10.20;99.90;10.20;100248.00;;;;4909118;28;108164;-68
2023/02/21 04:30:36;;;;;;;4.37;2.03;;;10.10;99.90;10.20;100239.00;;;;4912639;28;108931;-67
2023/02/21 04:33:02;;;;;;;5.93;2.30;;;10.20;99.90;10.20;100246.00;;;;4908991;28;112799;-67
2023/02/21 04:35:28;;;;;;;4.43;2.37;;;10.20;99.90;10.20;100240.00;;;;4910158;28;103642;-68
2023/02/21 04:37:54;;;;;;;2.57;1.67;;;10.20;99.90;10.20;100245.00;;;;4912838;28;88333;-67
2023/02/21 04:40:20;;;;;;;2.67;1.70;;;10.20;99.90;10.20;100243.00;;;;4911692;28;108113;-68
2023/02/21 04:42:45;;;;;;;5.77;2.13;;;10.20;99.90;10.20;100249.00;;;;4907264;28;107322;-68
2023/02/21 04:45:11;;;;;;;14.13;2.40;;;10.20;99.90;10.10;100241.00;;;;4909750;28;117476;-69
2023/02/21 04:47:37;;;;;;;4.77;2.17;;;10.20;99.90;10.10;100243.00;;;;4913201;28;87383;-68
2023/02/21 04:50:04;;;;;;;3.03;1.90;;;10.10;99.90;10.00;100230.00;;;;4908283;28;107903;-68
2023/02/21 04:52:30;;;;;;;3.50;2.37;;;10.10;99.90;10.00;100228.00;;;;4908941;28;89185;-67
2023/02/21 04:54:56;;;;;;;5.47;2.60;;;10.10;99.90;10.00;100218.00;;;;4909210;28;117518;-68
2023/02/21 04:57:22;;;;;;;3.20;1.93;;;10.10;99.90;10.00;100227.00;;;;4912370;28;110609;-67
2023/02/21 04:59:47;;;;;;;4.77;1.93;;;10.10;99.90;10.00;100239.00;;;;4911015;28;96813;-66
2023/02/21 05:02:13;;;;;;;3.67;2.07;;;10.00;99.90;10.00;100247.00;;;;4908240;28;118447;-67
2023/02/21 05:04:41;;;;;;;4.30;2.63;;;10.10;99.90;10.00;100245.00;;;;4906584;28;108546;-69
2023/02/21 05:07:06;;;;;;;5.70;2.87;;;10.10;99.90;10.00;100247.00;;;;4909508;28;87939;-67
2023/02/21 05:09:32;;;;;;;3.80;2.40;;;10.10;99.90;10.10;100249.00;;;;4909343;28;108279;-68
2023/02/21 05:11:58;;;;;;;2.60;2.27;;;10.10;99.90;10.10;100259.00;;;;4908844;28;90512;-68
2023/02/21 05:14:23;;;;;;;7.77;3.17;;;10.10;99.90;10.10;100249.00;;;;4909638;28;117009;-67
2023/02/21 05:16:49;;;;;;;4.23;3.37;;;10.10;99.90;10.10;100243.00;;;;4907181;28;106304;-69
2023/02/21 05:19:26;;;;;;;3.17;2.00;;;10.20;99.90;10.00;100248.00;;;;4908845;28;107655;-68
2023/02/21 05:21:56;;;;;;;3.87;2.37;;;10.10;99.90;10.10;100263.00;;;;4909273;28;88188;-68
2023/02/21 05:24:23;;;;;;;4.87;3.20;;;10.10;99.90;10.00;100266.00;;;;4912779;28;108982;-68
2023/02/21 05:26:49;;;;;;;5.67;2.80;;;10.10;99.90;10.10;100262.00;;;;4911919;28;100199;-67
2023/02/21 05:29:15;;;;;;;5.77;3.90;;;10.10;99.90;10.10;100263.00;;;;4911489;28;95003;-69
2023/02/21 05:31:41;;;;;;;7.40;3.43;;;10.10;99.90;10.10;100261.00;;;;4910027;28;117534;-67
2023/02/21 05:34:06;;;;;;;5.77;3.43;;;10.10;99.90;10.00;100237.00;;;;4908056;28;117423;-68
2023/02/21 05:36:32;;;;;;;4.53;2.57;;;10.10;99.90;10.00;100265.00;;;;4912674;28;110659;-69
2023/02/21 05:38:58;;;;;;;4.60;2.77;;;10.10;99.90;10.00;100260.00;;;;4913417;28;97289;-69
2023/02/21 05:41:24;;;;;;;4.13;2.77;;;10.10;99.90;10.00;100267.00;;;;4907055;28;116580;-68
2023/02/21 05:43:50;;;;;;;7.87;3.80;;;10.10;99.90;10.00;100275.00;;;;4912984;28;92593;-68
2023/02/21 05:46:32;;;;;;;4.23;2.87;;;10.10;99.90;10.00;100260.00;;;;4909092;28;98975;-66
2023/02/21 05:49:00;;;;;;;3.03;2.70;;;10.10;99.90;10.00;100268.00;;;;4914385;28;88050;-67
2023/02/21 05:51:30;;;;;;;7.00;3.83;;;10.00;99.90;10.00;100277.00;;;;4911432;28;88729;-67
2023/02/21 05:53:55;;;;;;;3.57;2.60;;;10.00;99.90;10.00;100277.00;;;;4911129;28;88779;-66
2023/02/21 05:56:21;;;;;;;4.97;2.90;;;10.00;99.90;10.00;100271.00;;;;4907189;28;110392;-67
2023/02/21 05:58:48;;;;;;;4.13;3.13;;;10.00;99.90;10.00;100286.00;;;;4910986;28;109272;-67
2023/02/21 06:01:13;;;;;;;4.83;3.03;;;10.00;99.90;10.00;100288.00;;;;4912745;28;87738;-68
2023/02/21 06:03:39;;;;;;;4.10;3.07;;;10.00;99.90;9.90;100293.00;;;;4907987;28;96002;-66
2023/02/21 06:06:05;;;;;;;3.93;3.03;;;10.00;99.90;9.90;100295.00;;;;4909384;28;111520;-67
2023/02/21 06:08:31;;;;;;;7.70;3.20;;;10.00;99.90;9.90;100289.00;;;;4910029;28;89065;-66
2023/02/21 06:10:56;;;;;;;4.97;2.97;;;10.00;99.90;9.90;100293.00;;;;4910779;28;88083;-66
2023/02/21 06:13:22;;;;;;;4.90;3.20;;;10.00;99.90;9.90;100292.00;;;;4911154;28;88710;-67
2023/02/21 06:15:48;;;;;;;7.63;3.40;;;10.00;99.90;9.90;100305.00;;;;4911731;28;109715;-68
2023/02/21 06:18:15;;;;;;;3.27;2.77;;;10.00;99.90;9.90;100303.00;;;;4912094;28;87788;-68
2023/02/21 06:20:41;;;;;;;5.77;3.13;;;10.00;99.90;9.90;100313.00;;;;4909522;28;109522;-67
2023/02/21 06:23:06;;;;;;;4.23;2.57;;;9.90;99.90;9.90;100322.00;;;;4908320;28;88997;-66
2023/02/21 06:25:32;;;;;;;6.37;4.33;;;9.90;99.90;9.90;100312.00;;;;4909999;28;111349;-66
2023/02/21 06:27:58;;;;;;;7.80;3.47;;;9.90;99.90;9.80;100320.00;;;;4914834;28;104541;-67
2023/02/21 06:30:24;;;;;;;5.33;3.37;;;9.90;99.90;9.80;100314.00;;;;4911877;28;90501;-66
2023/02/21 06:32:50;;;;;;;5.27;3.13;;;9.90;99.90;9.80;100316.00;;;;4912542;28;117360;-66
2023/02/21 06:35:15;;;;;;;7.10;3.53;;;9.80;99.90;9.70;100324.00;;;;4912215;28;111720;-66
2023/02/21 06:37:41;;;;;;;4.97;4.00;;;9.80;99.90;9.70;100324.00;;;;4911862;28;109274;-66
2023/02/21 06:40:07;;;;;;;7.07;3.17;;;9.70;99.90;9.60;100322.00;;;;4908670;28;103751;-67
2023/02/21 06:42:33;;;;;;;7.77;4.20;;;9.70;99.90;9.50;100336.00;;;;4913271;28;95546;-66
2023/02/21 06:44:59;;;;;;;6.30;4.73;;;9.70;99.90;9.40;100336.00;;;;4907656;28;102787;-66
2023/02/21 06:47:24;;;;;;;6.63;3.80;;;9.60;99.90;9.30;100343.00;;;;4910084;28;94749;-66
2023/02/21 06:49:50;;;;;;;6.87;4.07;;;9.40;99.90;9.20;100341.00;;;;4910988;28;117230;-66
2023/02/21 06:52:16;;;;;;;7.50;5.20;;;9.30;99.90;9.10;100332.00;;;;4910614;28;114658;-66
2023/02/21 06:54:41;;;;;;;7.33;4.53;;;9.30;99.90;9.10;100315.00;;;;4909340;28;111265;-67
2023/02/21 06:57:07;;;;;;;7.70;4.20;;;9.20;99.90;9.00;100334.00;;;;4910257;28;88746;-66
2023/02/21 06:59:33;;;;;;;6.23;4.13;;;9.20;99.90;9.00;100337.00;;;;4908043;28;102335;-65
2023/02/21 07:01:59;;;;;;;5.53;4.40;;;9.10;99.90;9.00;100338.00;;;;4906965;28;117039;-65
2023/02/21 07:04:25;;;;;;;7.03;4.23;;;9.10;99.90;9.00;100335.00;;;;4910445;28;87819;-68
2023/02/21 07:06:51;;;;;;;10.43;5.43;;;9.10;99.90;8.90;100341.00;;;;4907575;28;108325;-70
2023/02/21 07:09:17;;;;;;;10.67;5.17;;;9.10;99.90;8.90;100348.00;;;;4914156;28;88510;-66
2023/02/21 07:11:43;;;;;;;6.07;4.17;;;9.00;99.90;8.90;100355.00;;;;4908618;28;116547;-69
2023/02/21 07:14:10;;;;;;;10.67;4.63;;;9.00;99.90;8.90;100368.00;;;;4908990;28;87293;-70
2023/02/21 07:16:35;;;;;;;6.37;4.43;;;9.00;99.90;8.90;100355.00;;;;4911853;28;89476;-68
2023/02/21 07:19:01;;;;;;;12.03;4.83;;;9.00;99.90;8.90;100363.00;;;;4910135;28;118142;-67
2023/02/21 07:21:27;;;;;;;7.67;4.13;;;9.00;99.90;8.90;100366.00;;;;4908803;28;113540;-69
2023/02/21 07:23:53;;;;;;;8.40;4.73;;;9.00;99.90;8.90;100366.00;;;;4910612;28;88260;-70
2023/02/21 07:26:19;;;;;;;13.80;5.63;;;8.90;99.90;8.80;100361.00;;;;4912978;28;99081;-71
2023/02/21 07:28:47;;;;;;;7.30;5.67;;;8.90;99.90;8.80;100366.00;;;;4910482;28;117318;-71
2023/02/21 07:31:13;;;;;;;9.10;5.20;;;9.00;99.90;8.80;100370.00;;;;4909516;28;89022;-70
2023/02/21 07:33:39;;;;;;;8.77;4.97;;;8.90;99.90;8.80;100370.00;;;;4910202;28;110908;-71
2023/02/21 07:36:06;;;;;;;8.53;5.73;;;8.90;99.90;8.80;100371.00;;;;4908379;28;107959;-71
2023/02/21 07:38:31;;;;;;;9.73;4.90;;;8.90;99.90;8.80;100370.00;;;;4891663;28;108542;-70
2023/02/21 07:41:00;;;;;;;9.37;5.70;;;8.80;99.90;8.80;100373.00;;;;4911665;28;115790;-71
2023/02/21 07:43:29;;;;;;;9.13;5.63;;;8.90;99.90;8.80;100368.00;;;;4910175;28;87997;-71
2023/02/21 07:45:55;;;;;;;10.87;5.27;;;8.80;99.90;8.80;100376.00;;;;4910502;28;101214;-70
2023/02/21 07:48:21;;;;;;;10.57;5.57;;;8.80;99.90;8.80;100382.00;;;;4910949;28;117962;-70
2023/02/21 07:50:47;;;;;;;9.07;5.67;;;8.80;99.90;8.80;100375.00;;;;4910040;28;101613;-71
2023/02/21 07:53:14;;;;;;;8.53;5.97;;;8.90;99.90;8.80;100384.00;;;;4906842;28;110846;-70
2023/02/21 07:55:40;;;;;;;8.53;5.50;;;8.90;99.90;8.80;100381.00;;;;4894132;28;88000;-70
2023/02/21 07:58:06;;;;;;;10.23;5.70;;;8.90;99.90;8.80;100384.00;;;;4908281;28;116902;-72
2023/02/21 08:00:32;;;;;;;7.27;5.00;;;8.90;99.90;8.80;100394.00;;;;4910003;28;88105;-69
2023/02/21 08:02:58;;;;;;;12.23;6.43;;;8.90;99.90;8.80;100404.00;;;;4910053;28;110633;-69
2023/02/21 08:05:24;;;;;;;9.63;5.63;;;8.90;99.90;8.90;100382.00;;;;4908341;28;87962;-69
2023/02/21 08:07:50;;;;;;;7.83;5.40;;;8.90;99.90;8.90;100417.00;;;;4910100;28;102895;-71
2023/02/21 08:10:25;;;;;;;8.33;5.17;;;8.90;99.90;8.90;100406.00;;;;4889271;28;89297;-69
2023/02/21 08:12:51;;;;;;;14.13;5.80;;;9.00;99.90;8.90;100406.00;;;;4908930;28;88013;-69
2023/02/21 08:23:03;;;;;;;11.63;6.53;;;9.10;99.90;9.10;100411.00;;;;4298750;26;87670;-68
2023/02/21 08:25:28;;;;;;;10.87;6.20;;;9.20;99.90;9.10;100413.00;;;;4963205;28;107410;-69
2023/02/21 08:27:54;;;;;;;9.17;5.30;;;9.10;99.90;9.10;100424.00;;;;4961548;28;115628;-68
2023/02/21 08:30:20;;;;;;;9.67;5.97;;;9.20;99.90;9.20;100424.00;;;;4929402;28;87401;-69
2023/02/21 08:32:50;;;;;;;8.87;5.17;;;9.30;99.90;9.30;100436.00;;;;4951934;28;97907;-69
2023/02/21 08:35:18;;;;;;;14.60;6.93;;;9.30;99.90;9.30;100428.00;;;;4948708;28;88455;-69
2023/02/21 08:37:46;;;;;;;9.40;5.33;;;9.30;99.90;9.30;100422.00;;;;4947009;28;88673;-69
2023/02/21 08:40:13;;;;;;;8.77;5.97;;;9.40;99.90;9.40;100417.00;;;;4945451;28;89494;-68
2023/02/21 08:42:39;;;;;;;7.30;5.03;;;9.40;99.90;9.40;100426.00;;;;4961126;28;87437;-69
2023/02/21 08:45:06;;;;;;;12.90;6.20;;;9.40;99.90;9.50;100433.00;;;;4946941;28;90810;-69
2023/02/21 08:47:35;;;;;;;6.33;5.07;;;9.50;99.90;9.40;100438.00;;;;4963227;28;88351;-70
2023/02/21 08:50:00;;;;;;;12.10;5.40;;;9.50;99.90;9.40;100436.00;;;;4964173;28;87407;-69
2023/02/21 08:52:26;;;;;;;17.57;6.13;;;9.40;99.90;9.30;100438.00;;;;4964186;28;110185;-70
2023/02/21 08:54:52;;;;;;;8.70;5.40;;;9.40;99.90;9.30;100436.00;;;;4951401;28;107396;-70
2023/02/21 08:57:18;;;;;;;6.93;5.03;;;9.40;99.90;9.30;100442.00;;;;4962869;28;116177;-70
2023/02/21 08:59:44;;;;;;;6.53;4.57;;;9.40;99.90;9.20;100437.00;;;;4949145;28;88410;-70
2023/02/21 09:02:24;;;;;;;10.60;6.23;;;9.30;99.90;9.20;100455.00;;;;4965554;28;87571;-69
2023/02/21 09:04:50;;;;;;;8.80;5.33;;;9.30;99.90;9.20;100447.00;;;;4968064;28;87376;-70
2023/02/21 09:07:19;;;;;;;11.10;6.90;;;9.30;99.90;9.20;100456.00;;;;4948881;28;87356;-73
2023/02/21 09:09:45;;;;;;;11.77;6.13;;;9.30;99.90;9.20;100460.00;;;;4946531;28;87853;-72
2023/02/21 09:12:10;;;;;;;9.07;5.43;;;9.30;99.90;9.20;100455.00;;;;4941642;28;98691;-71
2023/02/21 09:14:39;;;;;;;11.20;5.60;;;9.30;99.90;9.20;100453.00;;;;4965118;28;108797;-70
2023/02/21 09:17:07;;;;;;;9.70;5.13;;;9.30;99.90;9.20;100447.00;;;;4944080;28;107947;-70
2023/02/21 09:19:34;;;;;;;9.83;5.40;;;9.30;99.90;9.20;100458.00;;;;4960404;28;87067;-70
2023/02/21 09:22:01;;;;;;;7.73;5.23;;;9.30;99.90;9.20;100446.00;;;;4958583;28;87755;-69
2023/02/21 09:24:27;;;;;;;9.40;6.57;;;9.40;99.90;9.20;100454.00;;;;4938894;28;89996;-69
2023/02/21 09:26:58;;;;;;;10.13;6.03;;;9.30;99.90;9.30;100463.00;;;;4941352;28;87809;-70
2023/02/21 09:29:32;;;;;;;9.97;5.50;;;9.30;99.90;9.30;100456.00;;;;4944550;28;87277;-68
2023/02/21 09:31:58;;;;;;;9.87;5.27;;;9.40;99.90;9.30;100460.00;;;;4942023;28;87450;-69
2023/02/21 09:34:24;;;;;;;8.63;5.57;;;9.40;99.90;9.40;100465.00;;;;4940182;28;100880;-68
2023/02/21 09:36:50;;;;;;;8.67;5.00;;;9.40;99.90;9.40;100457.00;;;;4957271;28;87350;-70
2023/02/21 09:39:19;;;;;;;8.67;5.10;;;9.40;99.90;9.40;100464.00;;;;4943894;28;87688;-68
2023/02/21 09:41:45;;;;;;;9.20;5.90;;;9.50;99.90;9.50;100460.00;;;;4944251;28;102236;-69
2023/02/21 09:44:16;;;;;;;6.80;4.33;;;9.50;99.90;9.50;100459.00;;;;4946617;28;86986;-69
2023/02/21 09:46:47;;;;;;;10.70;5.43;;;9.50;99.90;9.50;100468.00;;;;4941498;28;87438;-69
2023/02/21 09:49:31;;;;;;;7.60;5.00;;;9.60;99.90;9.50;100461.00;;;;4943970;28;104915;-69
2023/02/21 09:51:59;;;;;;;6.83;5.20;;;9.50;99.90;9.50;100472.00;;;;4945411;28;98867;-70
2023/02/21 09:54:38;;;;;;;10.40;5.17;;;9.60;99.90;9.50;100467.00;;;;4945493;28;97355;-70
2023/02/21 09:57:11;;;;;;;8.20;5.27;;;9.60;99.90;9.50;100474.00;;;;4941337;28;87739;-69
2023/02/21 09:59:36;;;;;;;9.50;6.13;;;9.60;99.90;9.50;100464.00;;;;4943047;28;90119;-70
2023/02/21 10:02:14;;;;;;;7.67;4.73;;;9.60;99.90;9.50;100475.00;;;;4944290;28;108119;-69
2023/02/21 10:05:21;;;;;;;7.17;5.30;;;9.50;99.90;9.50;100477.00;;;;4944703;28;87463;-69
2023/02/21 10:08:22;;;;;;;7.97;5.63;;;9.50;99.90;9.40;100472.00;;;;4942884;28;86789;-69
2023/02/21 10:11:26;;;;;;;9.47;5.77;;;9.60;99.90;9.50;100476.00;;;;4942480;28;88479;-69
2023/02/21 10:14:22;;;;;;;7.27;4.83;;;9.50;99.90;9.50;100476.00;;;;4901306;28;88843;-70
2023/02/21 10:16:59;;;;;;;17.63;6.57;;;9.50;99.90;9.40;100467.00;;;;4938033;28;88657;-69
2023/02/21 10:19:33;;;;;;;8.10;4.90;;;9.60;99.90;9.50;100478.00;;;;4937760;28;110518;-70
2023/02/21 10:22:18;;;;;;;7.23;5.10;;;9.50;99.90;9.50;100476.00;;;;4944774;28;92796;-69
2023/02/21 10:24:44;;;;;;;7.47;5.27;;;9.50;99.90;9.50;100476.00;;;;4946717;28;88251;-70
2023/02/21 10:27:19;;;;;;;6.50;4.43;;;9.60;99.90;9.50;100481.00;;;;4959396;28;87428;-68
2023/02/21 10:29:55;;;;;;;9.70;5.77;;;9.60;99.90;9.50;100475.00;;;;4945750;28;87720;-70
2023/02/21 10:32:23;;;;;;;10.87;5.53;;;9.60;99.90;9.50;100483.00;;;;4950370;28;88497;-69
2023/02/21 10:34:49;;;;;;;7.03;4.07;;;9.60;99.90;9.60;100486.00;;;;4947426;28;86651;-70
2023/02/21 10:37:40;;;;;;;5.77;4.10;;;9.60;99.90;9.50;100487.00;;;;4950161;28;87828;-68
2023/02/21 10:40:40;;;;;;;7.70;5.87;;;9.70;99.90;9.50;100490.00;;;;4949636;28;87929;-69
2023/02/21 10:43:24;;;;;;;8.13;5.23;;;9.70;99.90;9.60;100480.00;;;;4961396;28;88303;-69
2023/02/21 10:46:03;;;;;;;7.97;4.90;;;9.70;99.90;9.60;100482.00;;;;4947354;28;103001;-68
2023/02/21 10:48:35;;;;;;;10.10;5.10;;;9.70;99.90;9.70;100479.00;;;;4948774;28;87533;-70
2023/02/21 10:51:30;;;;;;;12.73;6.27;;;9.70;99.90;9.60;100483.00;;;;4946230;28;87913;-68
2023/02/21 10:54:21;;;;;;;9.37;4.80;;;9.70;99.90;9.70;100476.00;;;;4931020;28;89411;-68
2023/02/21 10:56:49;;;;;;;17.27;5.30;;;9.70;99.90;9.70;100472.00;;;;4945921;28;87297;-69
2023/02/21 10:59:41;;;;;;;7.53;4.73;;;9.80;99.90;9.70;100485.00;;;;4947150;28;87866;-67
2023/02/21 11:02:33;;;;;;;7.47;4.33;;;9.80;99.90;9.70;100465.00;;;;4947671;28;87023;-67
2023/02/21 11:05:19;;;;;;;7.77;4.80;;;9.80;99.90;9.80;100472.00;;;;4946241;28;89294;-67
2023/02/21 11:08:06;;;;;;;6.00;4.77;;;9.90;99.90;9.90;100464.00;;;;4945919;28;90283;-67
2023/02/21 11:10:40;;;;;;;11.73;5.20;;;10.00;99.90;10.10;100467.00;;;;4947533;28;88483;-68
2023/02/21 11:13:18;;;;;;;10.30;5.13;;;10.10;99.90;10.20;100464.00;;;;4946136;28;88776;-67
2023/02/21 11:15:45;;;;;;;11.47;4.93;;;10.20;99.90;10.30;100470.00;;;;4944201;28;98531;-67
2023/02/21 11:18:18;;;;;;;6.37;4.07;;;10.30;99.90;10.40;100460.00;;;;4944937;28;87485;-67
2023/02/21 11:20:46;;;;;;;8.03;4.67;;;10.40;99.90;10.50;100458.00;;;;4946517;28;87598;-66
2023/02/21 11:23:44;;;;;;;7.43;4.47;;;10.50;99.90;10.60;100468.00;;;;4959967;28;88814;-67
2023/02/21 11:26:14;;;;;;;10.13;5.33;;;10.60;99.90;10.70;100464.00;;;;4944845;28;97908;-67
2023/02/21 11:28:43;;;;;;;6.50;4.43;;;10.70;99.90;10.80;100458.00;;;;4947724;28;109195;-67
2023/02/21 11:31:19;;;;;;;9.97;4.57;;;10.80;99.90;10.90;100462.00;;;;4946643;28;87164;-68
2023/02/21 11:33:59;;;;;;;6.67;4.23;;;10.90;99.90;11.00;100465.00;;;;4943844;28;107314;-68
2023/02/21 11:36:35;;;;;;;8.97;4.27;;;10.90;99.90;11.00;100461.00;;;;4959527;28;88387;-66
2023/02/21 11:39:07;;;;;;;4.77;3.63;;;11.10;99.90;11.20;100461.00;;;;4944230;28;99310;-69
2023/02/21 11:42:02;;;;;;;6.70;3.70;;;11.10;99.90;11.30;100453.00;;;;4930442;28;87530;-68
2023/02/21 11:44:34;;;;;;;5.30;3.10;;;11.30;99.90;11.40;100447.00;;;;4959121;28;87889;-69
2023/02/21 11:47:18;;;;;;;5.63;3.67;;;11.40;99.90;11.60;100453.00;;;;4946055;28;88292;-67
2023/02/21 11:50:10;;;;;;;6.00;3.40;;;11.60;99.90;11.70;100448.00;;;;4947824;28;110831;-66
2023/02/21 11:52:40;;;;;;;7.60;3.83;;;11.70;99.90;11.80;100440.00;;;;4945398;28;87898;-67
2023/02/21 11:55:15;;;;;;;4.53;2.80;;;11.80;99.90;11.80;100442.00;;;;4947456;28;99709;-66
2023/02/21 11:58:02;;;;;;;5.57;3.27;;;11.80;99.90;11.90;100440.00;;;;4943527;28;87911;-65
2023/02/21 12:01:00;;;;;;;4.70;3.03;;;11.90;99.90;11.90;100441.00;;;;4945282;28;87524;-66
2023/02/21 12:03:56;;;;;;;6.33;3.60;;;12.00;99.90;11.90;100444.00;;;;4944126;28;88291;-67
2023/02/21 12:06:42;;;;;;;5.93;3.80;;;12.00;99.90;11.90;100449.00;;;;4943559;28;99644;-66
2023/02/21 12:09:24;;;;;;;4.67;2.67;;;11.90;99.90;11.80;100440.00;;;;4941358;28;87427;-69
2023/02/21 12:12:07;;;;;;;6.50;3.40;;;11.90;99.90;11.80;100453.00;;;;4959562;28;87569;-68
2023/02/21 12:15:03;;;;;;;3.43;2.53;;;11.90;99.90;11.70;100448.00;;;;4944574;28;93812;-68
2023/02/21 12:17:59;;;;;;;6.40;3.60;;;11.80;99.90;11.60;100443.00;;;;4944840;28;87572;-69
2023/02/21 12:21:04;;;;;;;4.40;2.83;;;11.80;99.90;11.60;100440.00;;;;4931051;28;90113;-69
2023/02/21 12:23:42;;;;;;;3.63;2.67;;;11.70;99.90;11.60;100448.00;;;;4931372;28;92141;-68
2023/02/21 12:26:27;;;;;;;6.10;3.17;;;11.70;99.90;11.50;100453.00;;;;4928640;28;99477;-68
2023/02/21 12:29:20;;;;;;;3.70;2.77;;;11.60;99.90;11.50;100452.00;;;;4931702;28;87504;-69
2023/02/21 12:32:21;;;;;;;4.20;2.23;;;11.60;99.90;11.50;100447.00;;;;4930704;28;88388;-68
2023/02/21 12:35:27;;;;;;;4.97;3.20;;;11.60;99.90;11.50;100442.00;;;;4932224;28;87672;-69
2023/02/21 12:38:15;;;;;;;3.97;2.57;;;11.50;99.90;11.50;100443.00;;;;4930933;28;87433;-68
2023/02/21 12:40:50;;;;;;;3.93;2.40;;;11.60;99.90;11.60;100443.00;;;;4943908;28;110152;-69
2023/02/21 12:43:37;;;;;;;8.17;3.37;;;11.60;99.90;11.50;100445.00;;;;4942683;28;111587;-68
2023/02/21 12:46:17;;;;;;;6.57;3.80;;;11.60;99.90;11.50;100449.00;;;;4910005;28;87995;-69
2023/02/21 12:49:01;;;;;;;9.33;3.67;;;11.60;99.90;11.50;100423.00;;;;4943439;28;102217;-71
2023/02/21 12:51:57;;;;;;;6.80;3.60;;;11.60;99.90;11.50;100429.00;;;;4945848;28;86761;-68
2023/02/21 12:54:41;;;;;;;5.37;2.77;;;11.60;99.90;11.50;100431.00;;;;4944532;28;100982;-71
2023/02/21 12:57:17;;;;;;;8.27;3.30;;;11.50;99.90;11.50;100425.00;;;;4929376;28;87353;-67
2023/02/21 12:59:54;;;;;;;5.17;3.03;;;11.60;99.90;11.50;100443.00;;;;4931968;28;88441;-68
2023/02/21 13:03:07;;;;;;;5.20;2.60;;;11.60;99.90;11.50;100423.00;;;;4927190;28;87480;-68
2023/02/21 13:05:40;;;;;;;4.73;2.90;;;11.60;99.90;11.50;100433.00;;;;4929567;28;87204;-71
2023/02/21 13:08:19;;;;;;;4.43;2.93;;;11.60;99.90;11.50;100425.00;;;;4942549;28;87562;-69
2023/02/21 13:11:26;;;;;;;8.30;3.80;;;11.50;99.90;11.50;100437.00;;;;4943151;28;87139;-69
2023/02/21 13:13:51;;;;;;;5.00;3.40;;;11.60;99.90;11.60;100425.00;;;;4924633;28;87723;-70
2023/02/21 13:16:18;;;;;;;4.33;2.87;;;11.60;99.90;11.60;100426.00;;;;4927922;28;116214;-68
2023/02/21 13:19:02;;;;;;;8.57;3.50;;;11.60;99.90;11.60;100425.00;;;;4927819;28;86502;-69
2023/02/21 13:21:54;;;;;;;6.63;3.13;;;11.60;99.90;11.60;100423.00;;;;4914449;28;92657;-69
2023/02/21 13:24:58;;;;;;;6.17;3.73;;;11.70;99.90;11.60;100417.00;;;;4945086;28;87369;-69
2023/02/21 13:28:01;;;;;;;9.93;3.23;;;11.70;99.90;11.60;100420.00;;;;4940015;28;88478;-70
2023/02/21 13:30:30;;;;;;;7.77;3.03;;;11.70;99.90;11.70;100422.00;;;;4941473;28;87546;-69
2023/02/21 13:32:59;;;;;;;4.17;2.60;;;11.70;99.90;11.60;100405.00;;;;4943293;28;108144;-71
2023/02/21 13:35:34;;;;;;;5.53;2.47;;;11.70;99.90;11.70;100418.00;;;;4943867;28;87466;-68
2023/02/21 13:38:05;;;;;;;4.67;3.00;;;11.70;99.90;11.70;100422.00;;;;4943360;28;87376;-71
2023/02/21 13:40:42;;;;;;;5.27;3.47;;;11.70;99.90;11.70;100415.00;;;;4941282;28;87770;-69
2023/02/21 13:43:28;;;;;;;3.63;2.93;;;11.70;99.90;11.70;100421.00;;;;4930734;28;87518;-69
2023/02/21 13:45:54;;;;;;;4.83;2.67;;;11.70;99.90;11.70;100417.00;;;;4942281;28;86720;-67